createdAt,value
2018-08-03T00:02:24.136Z,99.90
2018-08-03T00:06:28.517Z,99.90
2018-08-03T00:10:32.899Z,99.90
2018-08-03T00:14:37.078Z,99.90
2018-08-03T00:18:41.843Z,99.90
2018-08-03T00:22:46.283Z,99.90
2018-08-03T00:26:50.698Z,99.90
2018-08-03T00:30:55.037Z,99.90
2018-08-03T00:34:59.554Z,99.90
2018-08-03T00:39:04.785Z,99.90
2018-08-03T00:43:09.305Z,99.90
2018-08-03T00:47:13.722Z,99.90
2018-08-03T00:51:18.583Z,99.90
2018-08-03T00:55:22.949Z,99.90
2018-08-03T00:59:27.467Z,99.90
2018-08-03T01:03:32.031Z,99.90
2018-08-03T01:07:36.578Z,99.90
2018-08-03T01:11:41.149Z,99.90
2018-08-03T01:15:45.821Z,99.90
2018-08-03T01:19:50.110Z,99.90
2018-08-03T01:23:54.675Z,99.90
2018-08-03T01:27:59.082Z,99.90
2018-08-03T01:32:03.677Z,99.90
2018-08-03T01:36:08.128Z,99.90
2018-08-03T01:40:12.735Z,99.90
2018-08-03T01:44:17.241Z,99.90
2018-08-03T01:48:21.861Z,99.90
2018-08-03T01:52:26.615Z,99.90
2018-08-03T01:56:31.223Z,99.90
2018-08-03T02:00:35.662Z,99.90
2018-08-03T02:04:40.005Z,99.90
2018-08-03T02:08:44.753Z,99.90
2018-08-03T02:12:49.228Z,99.90
2018-08-03T02:16:54.956Z,99.90
2018-08-03T02:20:59.542Z,99.90
2018-08-03T02:25:04.284Z,99.90
2018-08-03T02:29:08.555Z,99.90
2018-08-03T02:33:13.112Z,99.90
2018-08-03T02:37:17.653Z,99.90
2018-08-03T02:41:22.079Z,99.90
2018-08-03T02:45:26.540Z,99.90
2018-08-03T02:49:31.084Z,99.90
2018-08-03T02:53:35.496Z,99.90
2018-08-03T02:57:40.011Z,99.90
2018-08-03T03:01:44.716Z,99.90
2018-08-03T03:05:49.301Z,99.90
2018-08-03T03:09:54.111Z,99.90
2018-08-03T03:13:58.586Z,99.90
2018-08-03T03:18:02.913Z,99.90
2018-08-03T03:22:08.449Z,99.90
2018-08-03T03:26:12.653Z,99.90
2018-08-03T03:30:17.196Z,99.90
2018-08-03T03:34:21.461Z,99.90
2018-08-03T03:38:25.899Z,99.90
2018-08-03T03:42:30.749Z,99.90
2018-08-03T03:46:35.827Z,99.90
2018-08-03T03:50:40.041Z,99.90
2018-08-03T03:54:44.445Z,99.90
2018-08-03T03:58:48.866Z,99.90
2018-08-03T04:02:53.271Z,99.90
2018-08-03T04:06:57.699Z,99.90
2018-08-03T04:11:02.470Z,99.90
2018-08-03T04:15:07.267Z,99.90
2018-08-03T04:19:11.992Z,99.90
2018-08-03T04:23:16.187Z,99.90
2018-08-03T04:27:20.751Z,99.90
2018-08-03T04:31:25.228Z,99.90
2018-08-03T04:35:29.525Z,99.90
2018-08-03T04:39:33.932Z,99.90
2018-08-03T04:43:38.405Z,99.90
2018-08-03T04:47:42.641Z,99.90
2018-08-03T04:51:46.826Z,99.90
2018-08-03T04:55:51.232Z,99.90
2018-08-03T04:59:55.546Z,99.90
2018-08-03T05:04:00.007Z,99.90
2018-08-03T05:08:04.390Z,99.90
2018-08-03T05:12:09.275Z,99.90
2018-08-03T05:16:13.887Z,99.90
2018-08-03T05:20:18.184Z,99.90
2018-08-03T05:24:22.684Z,99.90
2018-08-03T05:28:27.004Z,99.90
2018-08-03T05:32:31.558Z,99.90
2018-08-03T05:36:36.154Z,99.90
2018-08-03T05:40:40.544Z,99.90
2018-08-03T05:44:44.840Z,99.90
2018-08-03T05:48:49.082Z,99.90
2018-08-03T05:52:53.448Z,99.90
2018-08-03T05:56:57.718Z,99.90
2018-08-03T06:01:09.815Z,99.90
2018-08-03T06:05:14.107Z,99.90
2018-08-03T06:09:18.330Z,99.90
2018-08-03T06:13:22.682Z,99.90
2018-08-03T06:17:26.892Z,99.90
2018-08-03T06:21:31.162Z,99.90
2018-08-03T06:25:35.463Z,99.90
2018-08-03T06:29:39.669Z,95.90
2018-08-03T06:33:44.121Z,96.60
2018-08-03T06:37:48.341Z,98.90
2018-08-03T06:41:52.542Z,92.10
2018-08-03T06:45:56.857Z,93.90
2018-08-03T06:50:01.145Z,92.70
2018-08-03T06:54:05.412Z,90.90
2018-08-03T06:58:09.868Z,92.70
2018-08-03T07:02:14.221Z,91.20
2018-08-03T07:06:18.676Z,89.70
2018-08-03T07:10:22.936Z,90.80
2018-08-03T07:14:27.206Z,88.90
2018-08-03T07:18:31.811Z,85.10
2018-08-03T07:22:36.354Z,83.40
2018-08-03T07:26:40.764Z,82.60
2018-08-03T07:30:45.198Z,77.50
2018-08-03T07:34:49.511Z,80.50
2018-08-03T07:38:53.854Z,75.80
2018-08-03T07:42:58.165Z,77.10
2018-08-03T07:47:02.503Z,77.80
2018-08-03T07:51:07.053Z,75.70
2018-08-03T07:55:11.576Z,73.90
2018-08-03T07:59:16.542Z,74.10
2018-08-03T08:03:21.188Z,77.40
2018-08-03T08:07:25.770Z,74.80
2018-08-03T08:11:32.077Z,70.90
2018-08-03T08:15:36.645Z,66.40
2018-08-03T08:19:41.055Z,64.40
2018-08-03T08:23:47.265Z,64.10
2018-08-03T08:27:51.666Z,62.10
2018-08-03T08:31:57.822Z,60.50
2018-08-03T08:36:02.208Z,61.70
2018-08-03T08:40:07.468Z,57.80
2018-08-03T08:44:12.703Z,58.00
2018-08-03T08:48:18.518Z,56.70
2018-08-03T08:52:24.398Z,55.20
2018-08-03T08:56:29.044Z,57.00
2018-08-03T09:00:33.400Z,51.60
2018-08-03T09:04:37.668Z,54.40
2018-08-03T09:08:42.125Z,51.50
2018-08-03T09:12:46.370Z,51.70
2018-08-03T09:16:50.744Z,47.80
2018-08-03T09:20:55.450Z,49.10
2018-08-03T09:24:59.784Z,48.60
2018-08-03T09:29:04.064Z,42.40
2018-08-03T09:33:07.878Z,44.10
2018-08-03T09:37:12.203Z,45.70
2018-08-03T09:41:16.427Z,47.10
2018-08-03T09:45:20.681Z,45.30
2018-08-03T09:49:25.007Z,44.90
2018-08-03T09:53:29.317Z,45.80
2018-08-03T09:57:33.533Z,50.70
2018-08-03T10:01:37.999Z,49.60
2018-08-03T10:05:42.270Z,49.80
2018-08-03T10:09:46.566Z,47.80
2018-08-03T10:13:50.960Z,45.50
2018-08-03T10:17:55.284Z,43.60
2018-08-03T10:21:59.587Z,43.00
2018-08-03T10:26:04.216Z,42.30
2018-08-03T10:30:08.621Z,43.90
2018-08-03T10:34:15.203Z,47.90
2018-08-03T10:38:21.544Z,42.90
2018-08-03T10:42:26.128Z,41.80
2018-08-03T10:46:30.408Z,44.60
2018-08-03T10:50:34.634Z,42.60
2018-08-03T10:54:39.040Z,43.90
2018-08-03T10:58:43.360Z,42.30
2018-08-03T11:02:47.628Z,43.90
2018-08-03T11:06:52.267Z,47.00
2018-08-03T11:10:56.576Z,49.60
2018-08-03T11:15:01.893Z,48.50
2018-08-03T11:19:06.313Z,47.10
2018-08-03T11:23:10.579Z,50.50
2018-08-03T11:27:14.936Z,51.60
2018-08-03T11:31:19.183Z,51.30
2018-08-03T11:35:23.557Z,53.40
2018-08-03T11:39:27.991Z,53.70
2018-08-03T11:43:32.462Z,56.00
2018-08-03T11:47:36.922Z,61.30
2018-08-03T11:51:41.200Z,64.90
2018-08-03T11:55:45.464Z,65.60
2018-08-03T11:59:49.775Z,66.80
2018-08-03T12:03:54.033Z,69.10
2018-08-03T12:07:58.413Z,73.50
2018-08-03T12:12:02.764Z,83.90
2018-08-03T12:16:07.046Z,90.10
2018-08-03T12:20:11.421Z,93.80
2018-08-03T12:24:15.653Z,91.50
2018-08-03T12:28:20.079Z,92.70
2018-08-03T12:32:24.553Z,96.60
2018-08-03T12:36:28.817Z,95.80
2018-08-03T12:40:33.059Z,94.60
2018-08-03T12:44:37.479Z,96.80
2018-08-03T12:48:41.723Z,99.90
2018-08-03T12:52:45.963Z,97.00
2018-08-03T12:56:51.279Z,98.60
2018-08-03T13:00:57.986Z,99.90
2018-08-03T13:05:02.582Z,99.60
2018-08-03T13:09:07.868Z,95.40
2018-08-03T13:13:13.429Z,97.20
2018-08-03T13:17:17.915Z,97.80
2018-08-03T13:21:34.975Z,99.70
2018-08-03T13:25:39.497Z,98.80
2018-08-03T13:29:46.310Z,99.70
2018-08-03T13:33:51.460Z,99.60
2018-08-03T13:37:57.979Z,98.10
2018-08-03T13:42:02.496Z,99.30
2018-08-03T13:46:08.108Z,98.20
2018-08-03T13:50:12.521Z,96.20
2018-08-03T13:54:16.832Z,98.30
2018-08-03T13:58:21.299Z,97.80
2018-08-03T14:02:27.031Z,97.00
2018-08-03T14:06:31.591Z,98.00
2018-08-03T14:10:36.029Z,97.10
2018-08-03T14:14:59.729Z,96.70
2018-08-03T14:25:15.397Z,96.00
2018-08-03T14:29:19.738Z,94.30
2018-08-03T14:33:24.265Z,97.80
2018-08-03T14:37:30.797Z,97.20
2018-08-03T14:41:39.989Z,95.60
2018-08-03T14:45:44.866Z,94.70
2018-08-03T14:49:50.097Z,93.50
2018-08-03T14:53:59.304Z,92.60
2018-08-03T14:58:04.202Z,92.30
2018-08-03T15:02:10.756Z,91.60
2018-08-03T15:06:15.355Z,93.00
2018-08-03T15:10:21.604Z,92.40
2018-08-03T15:14:26.545Z,91.20
2018-08-03T15:18:32.089Z,91.40
2018-08-03T15:22:36.549Z,90.40
2018-08-03T15:26:42.315Z,89.60
2018-08-03T15:30:47.070Z,89.80
2018-08-03T15:34:51.711Z,88.20
2018-08-03T15:38:56.384Z,87.80
2018-08-03T15:43:00.710Z,85.80
2018-08-03T15:47:05.915Z,85.80
2018-08-03T15:51:10.257Z,87.80
2018-08-03T15:55:14.725Z,85.80
2018-08-03T15:59:18.992Z,85.20
2018-08-03T16:03:23.647Z,86.30
2018-08-03T16:07:29.917Z,87.10
2018-08-03T16:11:34.374Z,82.00
2018-08-03T16:15:41.278Z,82.50
2018-08-03T16:19:47.783Z,79.30
2018-08-03T16:23:52.719Z,79.90
2018-08-03T16:27:57.287Z,80.90
2018-08-03T16:32:01.683Z,80.10
2018-08-03T16:36:06.546Z,80.50
2018-08-03T16:40:13.243Z,84.20
2018-08-03T16:44:17.700Z,86.40
2018-08-03T16:48:22.206Z,84.40
2018-08-03T16:52:26.627Z,86.50
2018-08-03T16:56:31.410Z,87.10
2018-08-03T17:00:35.952Z,87.30
2018-08-03T17:04:40.236Z,89.40
2018-08-03T17:08:44.812Z,91.10
2018-08-03T17:12:52.927Z,91.00
2018-08-03T17:16:57.373Z,91.30
2018-08-03T17:21:02.132Z,93.10
2018-08-03T17:25:07.070Z,93.40
2018-08-03T17:29:11.870Z,94.40
2018-08-03T17:33:17.478Z,94.10
2018-08-03T17:37:21.770Z,94.60
2018-08-03T17:41:26.180Z,95.40
2018-08-03T17:45:30.878Z,96.90
2018-08-03T17:49:36.529Z,97.90
2018-08-03T17:53:41.704Z,98.10
2018-08-03T17:57:46.590Z,98.70
2018-08-03T18:01:51.727Z,99.10
2018-08-03T18:05:56.368Z,99.90
2018-08-03T18:10:00.799Z,99.90
2018-08-03T18:14:06.258Z,99.90
2018-08-03T18:18:11.735Z,99.90
2018-08-03T18:22:16.786Z,99.90
2018-08-03T18:26:22.201Z,99.90
2018-08-03T18:30:28.362Z,99.90
2018-08-03T18:34:33.592Z,99.90
2018-08-03T18:38:38.376Z,99.90
2018-08-03T18:42:43.388Z,99.90
2018-08-03T18:46:48.998Z,99.90
2018-08-03T18:50:53.652Z,99.90
2018-08-03T18:55:00.860Z,99.90
2018-08-03T18:59:05.778Z,99.90
2018-08-03T19:03:10.413Z,99.90
2018-08-03T19:07:15.338Z,99.90
2018-08-03T19:11:20.629Z,99.90
2018-08-03T19:15:25.809Z,99.90
2018-08-03T19:19:30.532Z,99.90
2018-08-03T19:23:35.280Z,99.90
2018-08-03T19:27:39.854Z,99.90
2018-08-03T19:31:44.412Z,99.90
2018-08-03T19:35:49.092Z,99.90
2018-08-03T19:39:53.612Z,99.90
2018-08-03T19:43:58.024Z,99.90
2018-08-03T19:48:02.428Z,99.90
2018-08-03T19:52:10.818Z,99.90
2018-08-03T19:56:18.730Z,99.90
2018-08-03T20:00:23.369Z,99.90
2018-08-03T20:04:31.076Z,99.90
2018-08-03T20:08:35.693Z,99.90
2018-08-03T20:12:41.275Z,99.90
2018-08-03T20:16:45.571Z,99.90
2018-08-03T20:20:50.856Z,99.90
2018-08-03T20:24:55.301Z,99.90
2018-08-03T20:28:59.530Z,99.90
2018-08-03T20:33:04.968Z,99.90
2018-08-03T20:37:10.423Z,99.90
2018-08-03T20:41:14.849Z,99.90
2018-08-03T20:45:19.260Z,99.90
2018-08-03T20:49:24.431Z,99.90
2018-08-03T20:53:28.986Z,99.90
2018-08-03T20:57:33.390Z,99.90
2018-08-03T21:01:37.880Z,99.90
2018-08-03T21:05:42.463Z,99.90
2018-08-03T21:09:46.806Z,99.90
2018-08-03T21:13:51.063Z,99.90
2018-08-03T21:17:55.557Z,99.90
2018-08-03T21:21:59.808Z,99.90
2018-08-03T21:26:04.275Z,99.90
2018-08-03T21:30:10.417Z,99.90
2018-08-03T21:34:15.313Z,99.90
2018-08-03T21:38:19.827Z,99.90
2018-08-03T21:42:24.449Z,99.90
2018-08-03T21:46:28.819Z,99.90
2018-08-03T21:50:33.081Z,99.90
2018-08-03T21:54:37.474Z,99.90
2018-08-03T21:58:42.132Z,99.90
2018-08-03T22:02:46.876Z,99.90
2018-08-03T22:06:51.288Z,99.90
2018-08-03T22:10:55.774Z,99.90
2018-08-03T22:15:00.180Z,99.90
2018-08-03T22:19:04.524Z,99.90
2018-08-03T22:23:08.988Z,99.90
2018-08-03T22:27:14.447Z,99.90
2018-08-03T22:31:18.801Z,99.90
2018-08-03T22:35:23.140Z,99.90
2018-08-03T22:39:27.938Z,99.90
2018-08-03T22:43:32.501Z,99.90
2018-08-03T22:47:37.324Z,99.90
2018-08-03T22:51:41.661Z,99.90
2018-08-03T22:55:46.335Z,99.90
2018-08-03T22:59:50.691Z,99.90
2018-08-03T23:03:55.582Z,99.90
2018-08-03T23:08:01.116Z,99.90
2018-08-03T23:12:05.951Z,99.90
2018-08-03T23:16:10.207Z,99.90
2018-08-03T23:20:14.629Z,99.90
2018-08-03T23:24:19.195Z,99.90
2018-08-03T23:28:24.036Z,99.90
2018-08-03T23:32:28.468Z,99.90
2018-08-03T23:36:32.937Z,99.90
2018-08-03T23:40:37.387Z,99.90
2018-08-03T23:44:42.060Z,99.90
2018-08-03T23:48:46.559Z,99.90
2018-08-03T23:52:51.012Z,99.90
2018-08-03T23:56:55.488Z,99.90
